sensor_id;sensor_type;location;lat;lon;timestamp;pressure;altitude;pressure_sealevel;temperature;humidity
52653;BME280;39353;42.864;12.014;2023-04-22T00:01:31;97276.13;;;21.84;52.49
52653;BME280;39353;42.864;12.014;2023-04-22T00:03:59;97278.20;;;21.84;52.60
52653;BME280;39353;42.864;12.014;2023-04-22T00:06:40;97279.23;;;21.83;52.52
52653;BME280;39353;42.864;12.014;2023-04-22T00:09:07;97278.54;;;21.82;52.50
52653;BME280;39353;42.864;12.014;2023-04-22T00:11:37;97278.52;;;21.81;52.59
52653;BME280;39353;42.864;12.014;2023-04-22T00:14:04;97277.11;;;21.82;52.54
52653;BME280;39353;42.864;12.014;2023-04-22T00:16:46;97271.08;;;21.81;52.75
52653;BME280;39353;42.864;12.014;2023-04-22T00:19:14;97274.88;;;21.80;52.64
52653;BME280;39353;42.864;12.014;2023-04-22T00:21:56;97276.15;;;21.78;52.58
52653;BME280;39353;42.864;12.014;2023-04-22T00:24:24;97279.82;;;21.78;52.59
52653;BME280;39353;42.864;12.014;2023-04-22T00:26:51;97279.67;;;21.77;52.60
52653;BME280;39353;42.864;12.014;2023-04-22T00:29:18;97277.42;;;21.76;52.69
52653;BME280;39353;42.864;12.014;2023-04-22T00:32:00;97276.58;;;21.76;52.78
52653;BME280;39353;42.864;12.014;2023-04-22T00:34:29;97276.91;;;21.75;52.66
52653;BME280;39353;42.864;12.014;2023-04-22T00:37:10;97279.46;;;21.75;52.75
52653;BME280;39353;42.864;12.014;2023-04-22T00:39:38;97278.83;;;21.74;52.69
52653;BME280;39353;42.864;12.014;2023-04-22T00:42:20;97280.73;;;21.73;52.79
52653;BME280;39353;42.864;12.014;2023-04-22T00:44:50;97280.41;;;21.73;52.56
52653;BME280;39353;42.864;12.014;2023-04-22T00:47:19;97280.40;;;21.73;52.62
52653;BME280;39353;42.864;12.014;2023-04-22T00:50:02;97279.05;;;21.73;52.59
52653;BME280;39353;42.864;12.014;2023-04-22T00:52:43;97284.26;;;21.74;52.47
52653;BME280;39353;42.864;12.014;2023-04-22T00:55:26;97286.11;;;21.74;52.63
52653;BME280;39353;42.864;12.014;2023-04-22T00:58:09;97288.30;;;21.74;52.55
52653;BME280;39353;42.864;12.014;2023-04-22T01:00:36;97289.27;;;21.73;52.47
52653;BME280;39353;42.864;12.014;2023-04-22T01:03:19;97292.20;;;21.73;52.57
52653;BME280;39353;42.864;12.014;2023-04-22T01:06:04;97293.30;;;21.73;52.49
52653;BME280;39353;42.864;12.014;2023-04-22T01:08:32;97293.46;;;21.73;52.58
52653;BME280;39353;42.864;12.014;2023-04-22T01:11:13;97295.20;;;21.72;52.58
52653;BME280;39353;42.864;12.014;2023-04-22T01:13:54;97292.85;;;21.73;52.56
52653;BME280;39353;42.864;12.014;2023-04-22T01:16:22;97292.47;;;21.73;52.44
52653;BME280;39353;42.864;12.014;2023-04-22T01:19:07;97291.36;;;21.72;52.59
52653;BME280;39353;42.864;12.014;2023-04-22T01:21:34;97293.59;;;21.71;52.65
52653;BME280;39353;42.864;12.014;2023-04-22T01:24:02;97294.02;;;21.71;52.66
52653;BME280;39353;42.864;12.014;2023-04-22T01:26:29;97292.27;;;21.71;52.58
52653;BME280;39353;42.864;12.014;2023-04-22T01:28:57;97293.02;;;21.70;52.54
52653;BME280;39353;42.864;12.014;2023-04-22T01:31:24;97294.16;;;21.70;52.59
52653;BME280;39353;42.864;12.014;2023-04-22T01:34:06;97293.41;;;21.70;52.51
52653;BME280;39353;42.864;12.014;2023-04-22T01:36:48;97294.80;;;21.69;52.52
52653;BME280;39353;42.864;12.014;2023-04-22T01:39:29;97291.40;;;21.69;52.63
52653;BME280;39353;42.864;12.014;2023-04-22T01:42:10;97292.20;;;21.69;52.55
52653;BME280;39353;42.864;12.014;2023-04-22T01:44:39;97294.64;;;21.69;52.67
52653;BME280;39353;42.864;12.014;2023-04-22T01:47:20;97291.66;;;21.69;52.55
52653;BME280;39353;42.864;12.014;2023-04-22T01:49:48;97291.72;;;21.68;52.65
52653;BME280;39353;42.864;12.014;2023-04-22T01:52:16;97290.75;;;21.67;52.48
52653;BME280;39353;42.864;12.014;2023-04-22T01:54:57;97290.26;;;21.67;52.55
52653;BME280;39353;42.864;12.014;2023-04-22T01:57:40;97290.90;;;21.66;52.54
52653;BME280;39353;42.864;12.014;2023-04-22T02:00:09;97286.60;;;21.65;52.62
52653;BME280;39353;42.864;12.014;2023-04-22T02:02:45;97288.38;;;21.64;52.69
52653;BME280;39353;42.864;12.014;2023-04-22T02:05:12;97285.45;;;21.63;52.68
52653;BME280;39353;42.864;12.014;2023-04-22T02:07:39;97284.91;;;21.62;52.63
52653;BME280;39353;42.864;12.014;2023-04-22T02:10:21;97279.92;;;21.61;52.69
52653;BME280;39353;42.864;12.014;2023-04-22T02:13:02;97278.75;;;21.60;52.69
52653;BME280;39353;42.864;12.014;2023-04-22T02:15:43;97284.90;;;21.59;52.74
52653;BME280;39353;42.864;12.014;2023-04-22T02:18:24;97283.97;;;21.59;52.82
52653;BME280;39353;42.864;12.014;2023-04-22T02:20:51;97284.27;;;21.58;52.81
52653;BME280;39353;42.864;12.014;2023-04-22T02:23:35;97291.36;;;21.57;52.75
52653;BME280;39353;42.864;12.014;2023-04-22T02:26:16;97290.39;;;21.57;52.82
52653;BME280;39353;42.864;12.014;2023-04-22T02:28:57;97288.25;;;21.57;52.75
52653;BME280;39353;42.864;12.014;2023-04-22T02:31:25;97289.54;;;21.56;52.70
52653;BME280;39353;42.864;12.014;2023-04-22T02:34:07;97289.47;;;21.55;52.78
52653;BME280;39353;42.864;12.014;2023-04-22T02:36:48;97293.01;;;21.55;52.85
52653;BME280;39353;42.864;12.014;2023-04-22T02:39:18;97294.66;;;21.56;52.80
52653;BME280;39353;42.864;12.014;2023-04-22T02:41:46;97291.98;;;21.55;52.60
52653;BME280;39353;42.864;12.014;2023-04-22T02:44:28;97292.73;;;21.55;52.75
52653;BME280;39353;42.864;12.014;2023-04-22T02:47:08;97294.48;;;21.54;52.65
52653;BME280;39353;42.864;12.014;2023-04-22T02:49:36;97296.54;;;21.54;52.76
52653;BME280;39353;42.864;12.014;2023-04-22T02:52:17;97294.38;;;21.53;52.79
52653;BME280;39353;42.864;12.014;2023-04-22T02:54:47;97292.76;;;21.51;52.71
52653;BME280;39353;42.864;12.014;2023-04-22T02:57:15;97295.25;;;21.51;52.75
52653;BME280;39353;42.864;12.014;2023-04-22T02:59:57;97290.91;;;21.49;52.77
52653;BME280;39353;42.864;12.014;2023-04-22T03:02:25;97290.87;;;21.48;52.72
52653;BME280;39353;42.864;12.014;2023-04-22T03:05:08;97288.66;;;21.48;52.86
52653;BME280;39353;42.864;12.014;2023-04-22T03:07:38;97294.77;;;21.47;52.73
52653;BME280;39353;42.864;12.014;2023-04-22T03:10:06;97293.61;;;21.46;52.83
52653;BME280;39353;42.864;12.014;2023-04-22T03:12:34;97292.45;;;21.45;52.71
52653;BME280;39353;42.864;12.014;2023-04-22T03:15:02;97291.56;;;21.45;52.82
52653;BME280;39353;42.864;12.014;2023-04-22T03:17:30;97288.23;;;21.45;52.89
52653;BME280;39353;42.864;12.014;2023-04-22T03:20:15;97289.00;;;21.45;52.84
52653;BME280;39353;42.864;12.014;2023-04-22T03:22:57;97289.37;;;21.45;52.69
52653;BME280;39353;42.864;12.014;2023-04-22T03:25:38;97289.59;;;21.45;52.86
52653;BME280;39353;42.864;12.014;2023-04-22T03:28:19;97292.48;;;21.44;52.85
52653;BME280;39353;42.864;12.014;2023-04-22T03:30:47;97296.38;;;21.43;52.83
52653;BME280;39353;42.864;12.014;2023-04-22T03:33:14;97297.30;;;21.43;52.78
52653;BME280;39353;42.864;12.014;2023-04-22T03:36:01;97297.30;;;21.43;52.82
52653;BME280;39353;42.864;12.014;2023-04-22T03:38:42;97295.94;;;21.42;52.76
52653;BME280;39353;42.864;12.014;2023-04-22T03:41:10;97298.80;;;21.42;52.81
52653;BME280;39353;42.864;12.014;2023-04-22T03:43:54;97293.63;;;21.42;52.93
52653;BME280;39353;42.864;12.014;2023-04-22T03:46:35;97293.61;;;21.41;52.78
52653;BME280;39353;42.864;12.014;2023-04-22T03:49:25;97291.88;;;21.40;52.80
52653;BME280;39353;42.864;12.014;2023-04-22T03:51:55;97297.10;;;21.40;52.85
52653;BME280;39353;42.864;12.014;2023-04-22T03:54:26;97304.53;;;21.40;52.85
52653;BME280;39353;42.864;12.014;2023-04-22T03:57:07;97303.46;;;21.38;52.82
52653;BME280;39353;42.864;12.014;2023-04-22T03:59:48;97305.65;;;21.38;52.93
52653;BME280;39353;42.864;12.014;2023-04-22T04:02:29;97310.80;;;21.39;52.91
52653;BME280;39353;42.864;12.014;2023-04-22T04:05:11;97309.68;;;21.38;52.88
52653;BME280;39353;42.864;12.014;2023-04-22T04:07:39;97304.14;;;21.38;52.86
52653;BME280;39353;42.864;12.014;2023-04-22T04:10:07;97297.30;;;21.37;52.85
52653;BME280;39353;42.864;12.014;2023-04-22T04:12:35;97295.44;;;21.36;52.94
52653;BME280;39353;42.864;12.014;2023-04-22T04:15:17;97296.78;;;21.36;53.00
52653;BME280;39353;42.864;12.014;2023-04-22T04:18:01;97295.07;;;21.35;53.10
52653;BME280;39353;42.864;12.014;2023-04-22T04:20:44;97295.98;;;21.34;53.09
52653;BME280;39353;42.864;12.014;2023-04-22T04:23:12;97295.09;;;21.34;52.96
52653;BME280;39353;42.864;12.014;2023-04-22T04:25:53;97294.14;;;21.33;53.05
52653;BME280;39353;42.864;12.014;2023-04-22T04:28:23;97289.16;;;21.32;52.98
52653;BME280;39353;42.864;12.014;2023-04-22T04:31:05;97290.85;;;21.32;53.03
52653;BME280;39353;42.864;12.014;2023-04-22T04:33:33;97295.60;;;21.32;53.03
52653;BME280;39353;42.864;12.014;2023-04-22T04:36:01;97299.14;;;21.31;53.05
52653;BME280;39353;42.864;12.014;2023-04-22T04:38:44;97303.77;;;21.31;53.07
52653;BME280;39353;42.864;12.014;2023-04-22T04:41:15;97304.66;;;21.30;53.05
52653;BME280;39353;42.864;12.014;2023-04-22T04:43:56;97304.08;;;21.30;53.07
52653;BME280;39353;42.864;12.014;2023-04-22T04:46:45;97303.08;;;21.29;53.13
52653;BME280;39353;42.864;12.014;2023-04-22T04:49:27;97304.64;;;21.28;52.91
52653;BME280;39353;42.864;12.014;2023-04-22T04:52:12;97309.08;;;21.29;52.96
52653;BME280;39353;42.864;12.014;2023-04-22T04:54:53;97311.95;;;21.28;52.91
52653;BME280;39353;42.864;12.014;2023-04-22T04:57:35;97316.29;;;21.27;53.09
52653;BME280;39353;42.864;12.014;2023-04-22T05:00:04;97318.51;;;21.27;53.07
52653;BME280;39353;42.864;12.014;2023-04-22T05:02:50;97321.90;;;21.27;53.12
52653;BME280;39353;42.864;12.014;2023-04-22T05:05:31;97331.70;;;21.26;53.23
52653;BME280;39353;42.864;12.014;2023-04-22T05:07:58;97334.59;;;21.26;53.04
52653;BME280;39353;42.864;12.014;2023-04-22T05:10:40;97334.14;;;21.26;53.04
52653;BME280;39353;42.864;12.014;2023-04-22T05:13:09;97330.74;;;21.25;53.20
52653;BME280;39353;42.864;12.014;2023-04-22T05:15:37;97333.53;;;21.25;53.16
52653;BME280;39353;42.864;12.014;2023-04-22T05:18:19;97340.15;;;21.25;53.12
52653;BME280;39353;42.864;12.014;2023-04-22T05:21:04;97342.14;;;21.27;53.05
52653;BME280;39353;42.864;12.014;2023-04-22T05:23:31;97347.13;;;21.27;53.10
52653;BME280;39353;42.864;12.014;2023-04-22T05:26:01;97350.15;;;21.28;52.98
52653;BME280;39353;42.864;12.014;2023-04-22T05:28:44;97353.08;;;21.30;53.07
52653;BME280;39353;42.864;12.014;2023-04-22T05:31:26;97355.16;;;21.30;53.07
52653;BME280;39353;42.864;12.014;2023-04-22T05:33:54;97354.64;;;21.31;53.06
52653;BME280;39353;42.864;12.014;2023-04-22T05:36:22;97360.78;;;21.33;52.95
52653;BME280;39353;42.864;12.014;2023-04-22T05:39:04;97361.52;;;21.34;53.00
52653;BME280;39353;42.864;12.014;2023-04-22T05:41:46;97366.72;;;21.34;52.99
52653;BME280;39353;42.864;12.014;2023-04-22T05:44:15;97369.14;;;21.35;53.01
52653;BME280;39353;42.864;12.014;2023-04-22T05:46:57;97375.52;;;21.35;53.02
52653;BME280;39353;42.864;12.014;2023-04-22T05:49:25;97378.75;;;21.35;53.04
52653;BME280;39353;42.864;12.014;2023-04-22T05:52:08;97380.00;;;21.35;53.00
52653;BME280;39353;42.864;12.014;2023-04-22T05:54:56;97379.54;;;21.36;52.86
52653;BME280;39353;42.864;12.014;2023-04-22T05:57:26;97380.20;;;21.37;52.92
52653;BME280;39353;42.864;12.014;2023-04-22T05:59:53;97377.00;;;21.37;53.03
52653;BME280;39353;42.864;12.014;2023-04-22T06:02:34;97377.72;;;21.37;52.94
52653;BME280;39353;42.864;12.014;2023-04-22T06:05:01;97374.54;;;21.37;53.02
52653;BME280;39353;42.864;12.014;2023-04-22T06:07:43;97373.80;;;21.38;52.98
52653;BME280;39353;42.864;12.014;2023-04-22T06:10:24;97371.78;;;21.38;53.02
52653;BME280;39353;42.864;12.014;2023-04-22T06:12:51;97377.15;;;21.39;52.90
52653;BME280;39353;42.864;12.014;2023-04-22T06:15:33;97377.13;;;21.40;53.06
52653;BME280;39353;42.864;12.014;2023-04-22T06:18:02;97373.55;;;21.41;53.03
52653;BME280;39353;42.864;12.014;2023-04-22T06:20:44;97380.35;;;21.41;52.85
52653;BME280;39353;42.864;12.014;2023-04-22T06:23:11;97379.13;;;21.42;53.15
52653;BME280;39353;42.864;12.014;2023-04-22T06:25:38;97382.25;;;21.43;53.35
52653;BME280;39353;42.864;12.014;2023-04-22T06:28:07;97388.13;;;21.43;52.93
52653;BME280;39353;42.864;12.014;2023-04-22T06:30:49;97393.88;;;21.41;52.56
52653;BME280;39353;42.864;12.014;2023-04-22T06:33:34;97392.20;;;21.41;52.93
52653;BME280;39353;42.864;12.014;2023-04-22T06:36:03;97394.82;;;21.42;52.81
52653;BME280;39353;42.864;12.014;2023-04-22T06:38:31;97395.23;;;21.43;52.91
52653;BME280;39353;42.864;12.014;2023-04-22T06:41:17;97398.75;;;21.44;52.86
52653;BME280;39353;42.864;12.014;2023-04-22T06:43:48;97401.59;;;21.44;53.13
52653;BME280;39353;42.864;12.014;2023-04-22T06:46:18;97405.59;;;21.44;53.08
52653;BME280;39353;42.864;12.014;2023-04-22T06:49:18;97409.21;;;21.46;53.21
52653;BME280;39353;42.864;12.014;2023-04-22T06:52:03;97412.89;;;21.47;52.96
52653;BME280;39353;42.864;12.014;2023-04-22T06:54:31;97413.73;;;21.47;52.49
52653;BME280;39353;42.864;12.014;2023-04-22T06:56:58;97416.88;;;21.47;52.63
52653;BME280;39353;42.864;12.014;2023-04-22T06:59:25;97416.58;;;21.49;52.69
52653;BME280;39353;42.864;12.014;2023-04-22T07:01:53;97414.90;;;21.50;52.67
52653;BME280;39353;42.864;12.014;2023-04-22T07:04:22;97419.59;;;21.51;52.51
52653;BME280;39353;42.864;12.014;2023-04-22T07:06:54;97418.50;;;21.52;52.38
52653;BME280;39353;42.864;12.014;2023-04-22T07:12:42;97412.00;;;21.51;52.25
52653;BME280;39353;42.864;12.014;2023-04-22T07:15:24;97411.54;;;21.51;52.19
52653;BME280;39353;42.864;12.014;2023-04-22T07:18:06;97413.95;;;21.49;51.97
52653;BME280;39353;42.864;12.014;2023-04-22T07:20:49;97409.68;;;21.51;52.01
52653;BME280;39353;42.864;12.014;2023-04-22T07:23:32;97399.06;;;21.54;52.29
52653;BME280;39353;42.864;12.014;2023-04-22T07:26:13;97394.16;;;21.59;52.60
52653;BME280;39353;42.864;12.014;2023-04-22T07:28:57;97395.59;;;21.63;52.86
52653;BME280;39353;42.864;12.014;2023-04-22T07:31:26;97399.66;;;21.66;52.90
52653;BME280;39353;42.864;12.014;2023-04-22T07:33:54;97405.11;;;21.70;52.65
52653;BME280;39353;42.864;12.014;2023-04-22T07:36:21;97406.00;;;21.72;52.93
52653;BME280;39353;42.864;12.014;2023-04-22T07:39:02;97407.79;;;21.76;52.85
52653;BME280;39353;42.864;12.014;2023-04-22T07:41:43;97408.24;;;21.79;52.72
52653;BME280;39353;42.864;12.014;2023-04-22T07:44:10;97408.14;;;21.81;52.76
52653;BME280;39353;42.864;12.014;2023-04-22T07:46:43;97404.59;;;21.82;52.72
52653;BME280;39353;42.864;12.014;2023-04-22T07:49:24;97405.61;;;21.85;52.54
52653;BME280;39353;42.864;12.014;2023-04-22T07:51:51;97401.67;;;21.85;52.62
52653;BME280;39353;42.864;12.014;2023-04-22T07:54:32;97404.86;;;21.83;52.54
52653;BME280;39353;42.864;12.014;2023-04-22T07:57:00;97402.56;;;21.83;52.59
52653;BME280;39353;42.864;12.014;2023-04-22T07:59:41;97402.95;;;21.81;52.63
52653;BME280;39353;42.864;12.014;2023-04-22T08:02:22;97405.48;;;21.81;52.59
52653;BME280;39353;42.864;12.014;2023-04-22T08:04:49;97409.11;;;21.80;52.56
52653;BME280;39353;42.864;12.014;2023-04-22T08:07:30;97410.00;;;21.79;52.42
52653;BME280;39353;42.864;12.014;2023-04-22T08:09:57;97412.41;;;21.79;52.48
52653;BME280;39353;42.864;12.014;2023-04-22T08:12:25;97411.31;;;21.79;52.39
52653;BME280;39353;42.864;12.014;2023-04-22T08:15:07;97405.27;;;21.81;52.49
52653;BME280;39353;42.864;12.014;2023-04-22T08:17:50;97402.08;;;21.86;52.43
52653;BME280;39353;42.864;12.014;2023-04-22T08:20:31;97406.59;;;21.90;52.47
52653;BME280;39353;42.864;12.014;2023-04-22T08:23:12;97405.20;;;21.93;52.55
52653;BME280;39353;42.864;12.014;2023-04-22T08:25:54;97402.70;;;21.95;52.47
52653;BME280;39353;42.864;12.014;2023-04-22T08:28:21;97396.55;;;21.95;50.60
52653;BME280;39353;42.864;12.014;2023-04-22T08:30:48;97388.34;;;21.98;51.14
52653;BME280;39353;42.864;12.014;2023-04-22T08:33:29;97389.23;;;22.03;51.54
52653;BME280;39353;42.864;12.014;2023-04-22T08:35:57;97389.55;;;22.07;51.71
52653;BME280;39353;42.864;12.014;2023-04-22T08:38:38;97390.24;;;22.09;50.78
52653;BME280;39353;42.864;12.014;2023-04-22T08:41:21;97389.13;;;22.08;50.58
52653;BME280;39353;42.864;12.014;2023-04-22T08:44:04;97388.20;;;22.05;49.72
52653;BME280;39353;42.864;12.014;2023-04-22T08:46:47;97391.61;;;22.00;49.20
52653;BME280;39353;42.864;12.014;2023-04-22T08:49:30;97391.02;;;22.01;49.63
52653;BME280;39353;42.864;12.014;2023-04-22T08:52:11;97389.46;;;22.07;49.51
52653;BME280;39353;42.864;12.014;2023-04-22T08:54:56;97389.50;;;22.12;49.07
52653;BME280;39353;42.864;12.014;2023-04-22T08:57:38;97386.07;;;22.15;49.07
52653;BME280;39353;42.864;12.014;2023-04-22T09:00:07;97382.48;;;22.16;48.83
52653;BME280;39353;42.864;12.014;2023-04-22T09:02:50;97380.51;;;22.16;49.05
52653;BME280;39353;42.864;12.014;2023-04-22T09:05:36;97377.35;;;22.16;48.71
52653;BME280;39353;42.864;12.014;2023-04-22T09:08:18;97377.16;;;22.18;48.93
52653;BME280;39353;42.864;12.014;2023-04-22T09:10:58;97378.02;;;22.19;49.15
52653;BME280;39353;42.864;12.014;2023-04-22T09:13:41;97378.11;;;22.22;49.54
52653;BME280;39353;42.864;12.014;2023-04-22T09:16:09;97378.14;;;22.22;49.69
52653;BME280;39353;42.864;12.014;2023-04-22T09:18:42;97377.04;;;22.25;50.07
52653;BME280;39353;42.864;12.014;2023-04-22T09:21:25;97371.67;;;22.22;48.03
52653;BME280;39353;42.864;12.014;2023-04-22T09:24:11;97368.59;;;22.09;45.71
52653;BME280;39353;42.864;12.014;2023-04-22T09:26:54;97369.86;;;22.05;47.97
52653;BME280;39353;42.864;12.014;2023-04-22T09:29:50;97369.80;;;22.04;48.02
52653;BME280;39353;42.864;12.014;2023-04-22T09:32:32;97367.83;;;22.04;48.32
52653;BME280;39353;42.864;12.014;2023-04-22T09:35:01;97368.17;;;22.03;48.51
52653;BME280;39353;42.864;12.014;2023-04-22T09:37:28;97367.15;;;22.01;48.74
52653;BME280;39353;42.864;12.014;2023-04-22T09:40:14;97366.96;;;22.00;48.69
52653;BME280;39353;42.864;12.014;2023-04-22T09:43:00;97361.51;;;21.98;48.90
52653;BME280;39353;42.864;12.014;2023-04-22T09:45:43;97361.39;;;21.97;48.78
52653;BME280;39353;42.864;12.014;2023-04-22T09:48:14;97361.69;;;21.97;48.89
52653;BME280;39353;42.864;12.014;2023-04-22T09:50:57;97358.30;;;21.95;48.93
52653;BME280;39353;42.864;12.014;2023-04-22T09:53:24;97358.39;;;21.93;49.01
52653;BME280;39353;42.864;12.014;2023-04-22T09:56:05;97354.20;;;21.90;49.15
52653;BME280;39353;42.864;12.014;2023-04-22T09:58:51;97352.43;;;21.86;49.22
52653;BME280;39353;42.864;12.014;2023-04-22T10:01:39;97351.04;;;21.83;45.21
52653;BME280;39353;42.864;12.014;2023-04-22T10:04:22;97346.85;;;21.72;39.49
52653;BME280;39353;42.864;12.014;2023-04-22T10:06:52;97347.06;;;21.60;37.78
52653;BME280;39353;42.864;12.014;2023-04-22T10:09:34;97343.42;;;21.53;37.45
52653;BME280;39353;42.864;12.014;2023-04-22T10:12:16;97345.55;;;21.51;37.57
52653;BME280;39353;42.864;12.014;2023-04-22T10:14:57;97344.61;;;21.49;38.09
52653;BME280;39353;42.864;12.014;2023-04-22T10:17:39;97343.62;;;21.46;38.11
52653;BME280;39353;42.864;12.014;2023-04-22T10:20:15;97338.27;;;21.44;36.83
52653;BME280;39353;42.864;12.014;2023-04-22T10:22:46;97338.08;;;21.46;36.36
52653;BME280;39353;42.864;12.014;2023-04-22T10:25:25;97335.13;;;21.46;36.89
52653;BME280;39353;42.864;12.014;2023-04-22T10:28:08;97336.38;;;21.47;38.64
52653;BME280;39353;42.864;12.014;2023-04-22T10:30:38;97333.73;;;21.49;39.64
52653;BME280;39353;42.864;12.014;2023-04-22T10:36:32;97333.68;;;21.53;41.26
52653;BME280;39353;42.864;12.014;2023-04-22T10:41:40;97330.47;;;21.57;42.35
52653;BME280;39353;42.864;12.014;2023-04-22T10:44:07;97331.10;;;21.59;42.72
52653;BME280;39353;42.864;12.014;2023-04-22T10:49:33;97329.83;;;21.61;43.72
52653;BME280;39353;42.864;12.014;2023-04-22T10:52:26;97330.61;;;21.61;43.81
52653;BME280;39353;42.864;12.014;2023-04-22T10:55:09;97325.02;;;21.62;41.95
52653;BME280;39353;42.864;12.014;2023-04-22T10:57:39;97328.77;;;21.62;41.28
52653;BME280;39353;42.864;12.014;2023-04-22T11:00:29;97331.16;;;21.63;41.75
52653;BME280;39353;42.864;12.014;2023-04-22T11:03:11;97324.77;;;21.65;42.53
52653;BME280;39353;42.864;12.014;2023-04-22T11:05:40;97324.73;;;21.68;42.99
52653;BME280;39353;42.864;12.014;2023-04-22T11:08:27;97326.10;;;21.70;43.44
52653;BME280;39353;42.864;12.014;2023-04-22T11:11:07;97323.70;;;21.72;43.66
52653;BME280;39353;42.864;12.014;2023-04-22T11:13:48;97323.05;;;21.73;44.23
52653;BME280;39353;42.864;12.014;2023-04-22T11:16:32;97312.41;;;21.73;44.17
52653;BME280;39353;42.864;12.014;2023-04-22T11:19:13;97314.50;;;21.74;44.41
52653;BME280;39353;42.864;12.014;2023-04-22T11:21:42;97311.07;;;21.74;44.61
52653;BME280;39353;42.864;12.014;2023-04-22T11:24:10;97314.51;;;21.74;44.75
52653;BME280;39353;42.864;12.014;2023-04-22T11:26:54;97310.33;;;21.72;44.83
52653;BME280;39353;42.864;12.014;2023-04-22T11:29:23;97310.39;;;21.71;45.28
52653;BME280;39353;42.864;12.014;2023-04-22T11:31:51;97307.95;;;21.69;43.38
52653;BME280;39353;42.864;12.014;2023-04-22T11:34:18;97303.06;;;21.68;43.77
52653;BME280;39353;42.864;12.014;2023-04-22T11:36:59;97306.57;;;21.66;43.04
52653;BME280;39353;42.864;12.014;2023-04-22T11:39:40;97301.23;;;21.67;43.51
52653;BME280;39353;42.864;12.014;2023-04-22T11:42:21;97299.77;;;21.68;43.95
52653;BME280;39353;42.864;12.014;2023-04-22T11:44:51;97292.79;;;21.69;44.90
52653;BME280;39353;42.864;12.014;2023-04-22T11:47:18;97288.23;;;21.71;45.06
52653;BME280;39353;42.864;12.014;2023-04-22T11:50:00;97289.61;;;21.71;45.62
52653;BME280;39353;42.864;12.014;2023-04-22T11:53:00;97291.02;;;21.70;46.04
52653;BME280;39353;42.864;12.014;2023-04-22T11:55:43;97289.93;;;21.69;46.36
52653;BME280;39353;42.864;12.014;2023-04-22T11:58:19;97287.56;;;21.68;46.33
52653;BME280;39353;42.864;12.014;2023-04-22T12:00:51;97285.23;;;21.67;46.66
52653;BME280;39353;42.864;12.014;2023-04-22T12:03:33;97280.71;;;21.65;46.60
52653;BME280;39353;42.864;12.014;2023-04-22T12:06:15;97281.56;;;21.64;46.54
52653;BME280;39353;42.864;12.014;2023-04-22T12:08:43;97282.52;;;21.65;46.80
52653;BME280;39353;42.864;12.014;2023-04-22T12:11:13;97281.33;;;21.66;46.75
52653;BME280;39353;42.864;12.014;2023-04-22T12:13:43;97278.08;;;21.67;46.69
52653;BME280;39353;42.864;12.014;2023-04-22T12:16:16;97275.19;;;21.69;46.91
52653;BME280;39353;42.864;12.014;2023-04-22T12:18:58;97274.80;;;21.72;46.77
52653;BME280;39353;42.864;12.014;2023-04-22T12:21:40;97278.23;;;21.71;46.88
52653;BME280;39353;42.864;12.014;2023-04-22T12:24:08;97274.33;;;21.70;46.77
52653;BME280;39353;42.864;12.014;2023-04-22T12:26:52;97273.61;;;21.70;46.99
52653;BME280;39353;42.864;12.014;2023-04-22T12:29:29;97274.16;;;21.70;46.97
52653;BME280;39353;42.864;12.014;2023-04-22T12:32:11;97272.98;;;21.70;47.22
52653;BME280;39353;42.864;12.014;2023-04-22T12:34:57;97270.33;;;21.71;47.28
52653;BME280;39353;42.864;12.014;2023-04-22T12:37:40;97267.27;;;21.72;47.28
52653;BME280;39353;42.864;12.014;2023-04-22T12:40:22;97261.77;;;21.72;47.59
52653;BME280;39353;42.864;12.014;2023-04-22T12:42:49;97256.73;;;21.72;47.73
52653;BME280;39353;42.864;12.014;2023-04-22T12:45:31;97257.06;;;21.72;47.94
52653;BME280;39353;42.864;12.014;2023-04-22T12:48:01;97255.26;;;21.72;47.95
52653;BME280;39353;42.864;12.014;2023-04-22T12:50:28;97252.92;;;21.73;47.85
52653;BME280;39353;42.864;12.014;2023-04-22T12:53:10;97254.64;;;21.74;48.14
52653;BME280;39353;42.864;12.014;2023-04-22T12:55:53;97245.95;;;21.73;48.14
52653;BME280;39353;42.864;12.014;2023-04-22T12:58:34;97245.19;;;21.74;48.36
52653;BME280;39353;42.864;12.014;2023-04-22T13:01:21;97243.39;;;21.73;48.33
52653;BME280;39353;42.864;12.014;2023-04-22T13:03:50;97240.41;;;21.73;48.48
52653;BME280;39353;42.864;12.014;2023-04-22T13:06:20;97235.74;;;21.73;48.65
52653;BME280;39353;42.864;12.014;2023-04-22T13:08:47;97239.02;;;21.73;48.63
52653;BME280;39353;42.864;12.014;2023-04-22T13:11:15;97234.81;;;21.73;48.63
52653;BME280;39353;42.864;12.014;2023-04-22T13:13:42;97233.52;;;21.75;48.45
52653;BME280;39353;42.864;12.014;2023-04-22T13:16:23;97231.29;;;21.76;48.07
52653;BME280;39353;42.864;12.014;2023-04-22T13:18:50;97228.19;;;21.78;48.06
52653;BME280;39353;42.864;12.014;2023-04-22T13:21:31;97229.99;;;21.78;48.15
52653;BME280;39353;42.864;12.014;2023-04-22T13:23:58;97227.60;;;21.78;48.24
52653;BME280;39353;42.864;12.014;2023-04-22T13:26:26;97224.49;;;21.78;48.46
52653;BME280;39353;42.864;12.014;2023-04-22T13:28:53;97223.46;;;21.79;48.54
52653;BME280;39353;42.864;12.014;2023-04-22T13:31:34;97223.05;;;21.79;48.60
52653;BME280;39353;42.864;12.014;2023-04-22T13:34:02;97219.26;;;21.79;48.67
52653;BME280;39353;42.864;12.014;2023-04-22T13:36:29;97218.01;;;21.81;48.53
52653;BME280;39353;42.864;12.014;2023-04-22T13:39:11;97216.98;;;21.82;48.57
52653;BME280;39353;42.864;12.014;2023-04-22T13:41:38;97211.68;;;21.82;48.60
52653;BME280;39353;42.864;12.014;2023-04-22T13:44:06;97213.42;;;21.81;48.61
52653;BME280;39353;42.864;12.014;2023-04-22T13:46:34;97210.98;;;21.81;48.51
52653;BME280;39353;42.864;12.014;2023-04-22T13:49:01;97209.94;;;21.81;48.45